»·PEaware :: N4676D L88-KSBP

N4676D :: L88-KSBP

FLIGHT INFORMATION

Flight Status: Arrived
Operator: Privately registered:
United States
More flights under this callsign
Pilot: Patrick R. (20383)
Aircraft: CESSNA 172 SKYHAWK
(C172)
More flights by this aircraft type
Origin: L88 New Cuyama
United States
Destination: KSBP San Luis Co Regl
United States
More flights between these airports :: More routes between these airports
Route: L88 KSBP DIRECT
File this flight plan on PilotEdge
Remarks: CAT 2 rating
Altitude:
(Current/Filed)
6,000ft
Speed:
(Current/Filed)
110kts
Departed: 27-Jan-19 04:04 PM
Arrived: 27-Jan-19 04:36 PM
Distance/Time
Traveled:
50nm/0:32
Distance/Time
To Go:
Arrived

Flight Plot

Page will automatically refresh every two minutes.

Flight plan parsing failed; only flown route is shown


Map Options




Map Legend


Flown Route
Filed Route
Departure Airport
Arrival Airport
Navaid (VOR, NDB)
Fix

Horizontal Profiles

Position Reports

Time Latitude Longitude Heading Altitude Ground
Speed
27-Jan-19 15:52 34.942850 -119.690287 204 2156ft 0kts
27-Jan-19 15:53 34.942850 -119.690287 204 2156ft 0kts
27-Jan-19 15:54 34.942850 -119.690287 204 2156ft 0kts
27-Jan-19 15:55 34.942850 -119.690287 204 2156ft 0kts
27-Jan-19 15:56 34.942850 -119.690287 204 2156ft 0kts
27-Jan-19 15:57 34.942850 -119.690287 204 2156ft 0kts
27-Jan-19 15:58 34.942850 -119.690287 204 2156ft 0kts
27-Jan-19 15:59 34.942850 -119.690287 204 2156ft 0kts
27-Jan-19 16:00 34.942849 -119.690287 204 2156ft 0kts
27-Jan-19 16:01 34.942380 -119.691216 144 2156ft 10kts
27-Jan-19 16:01 34.938999 -119.683291 117 2188ft 39kts
27-Jan-19 16:03 34.937790 -119.680217 288 2199ft 7kts
27-Jan-19 16:04 34.945471 -119.697154 294 2609ft 73kts
27-Jan-19 16:05 34.952100 -119.721277 285 3314ft 74kts
27-Jan-19 16:05 34.957065 -119.739420 285 3957ft 62kts
27-Jan-19 16:06 34.963690 -119.762527 288 4520ft 78kts
27-Jan-19 16:08 34.972594 -119.792754 288 5225ft 82kts
27-Jan-19 16:08 34.978993 -119.814795 288 5729ft 82kts
27-Jan-19 16:09 34.987344 -119.843973 288 5972ft 109kts
27-Jan-19 16:10 34.997853 -119.878862 293 6007ft 111kts
27-Jan-19 16:11 35.010676 -119.912807 294 6007ft 109kts
27-Jan-19 16:12 35.021883 -119.946893 290 6007ft 108kts
27-Jan-19 16:13 35.032766 -119.981238 290 6007ft 108kts
27-Jan-19 16:14 35.043614 -120.015385 290 6008ft 108kts
27-Jan-19 16:15 35.054125 -120.049575 291 6004ft 106kts
27-Jan-19 16:16 35.064272 -120.083563 291 6009ft 106kts
27-Jan-19 16:17 35.074363 -120.117609 291 6014ft 106kts
27-Jan-19 16:18 35.084439 -120.151780 291 6017ft 107kts
27-Jan-19 16:19 35.094546 -120.186164 291 6021ft 107kts
27-Jan-19 16:20 35.104670 -120.220664 291 6023ft 108kts
27-Jan-19 16:21 35.114848 -120.255346 291 6025ft 108kts
27-Jan-19 16:22 35.125067 -120.290081 291 6023ft 108kts
27-Jan-19 16:23 35.136320 -120.324250 296 6021ft 108kts
27-Jan-19 16:24 35.148718 -120.357644 296 6019ft 108kts
27-Jan-19 16:25 35.161012 -120.390959 294 6016ft 107kts
27-Jan-19 16:26 35.172499 -120.424752 294 6013ft 107kts
27-Jan-19 16:27 35.183517 -120.457188 294 6010ft 99kts
27-Jan-19 16:28 35.191984 -120.482815 294 6004ft 65kts
27-Jan-19 16:29 35.199548 -120.505955 294 5496ft 91kts
27-Jan-19 16:30 35.209300 -120.534300 295 4495ft 91kts
27-Jan-19 16:31 35.209116 -120.564000 269 3535ft 77kts
27-Jan-19 16:32 35.211838 -120.588790 294 2291ft 74kts
27-Jan-19 16:33 35.220390 -120.610405 301 1132ft 66kts
27-Jan-19 16:34 35.230583 -120.629267 305 370ft 63kts
27-Jan-19 16:35 35.237507 -120.639925 3 216ft 4kts
27-Jan-19 16:36 35.237531 -120.639924 3 216ft 0kts
27-Jan-19 16:37 35.238457 -120.640025 269 216ft 0kts
27-Jan-19 16:38 35.238419 -120.640141 222 216ft 0kts
27-Jan-19 16:39 35.238419 -120.640141 222 216ft 0kts
27-Jan-19 16:40 35.238419 -120.640141 222 216ft 0kts
27-Jan-19 16:41 35.238419 -120.640141 222 216ft 0kts
27-Jan-19 16:42 35.238419 -120.640141 222 216ft 0kts

Navigation Log

Ident Type
Flight plan parsing failed, navigation log unavailable